Time;durP1;ratioP1;P1;durP2;ratioP2;P2;SDS_P1;SDS_P2;PMS_P1;PMS_P2;Temp;Humidity;BMP_temperature;BMP_pressure;BME280_temperature;BME280_humidity;BME280_pressure;Samples;Min_cycle;Max_cycle;Signal;HPM_P1;HPM_P2
2023/04/19 16:08:40;;;;;;;11.52;3.78;;;;;;;8.21;71.70;101517.44;2129059;27;20109;-68
2023/04/19 16:09:48;;;;;;;10.25;4.05;;;;;;;8.24;71.55;101530.38;2130058;27;20268;-65
2023/04/19 16:10:53;;;;;;;13.80;4.32;;;;;;;8.27;71.40;101528.03;2129419;27;20268;-67
2023/04/19 16:11:57;;;;;;;12.80;4.15;;;;;;;8.18;71.43;101534.00;2111810;27;20247;-68
2023/04/19 16:13:03;;;;;;;8.35;3.33;;;;;;;8.18;71.38;101520.59;2103941;27;20252;-66
2023/04/19 16:14:06;;;;;;;12.48;4.22;;;;;;;8.14;71.65;101528.31;2100241;28;20271;-68
2023/04/19 16:15:12;;;;;;;10.88;4.32;;;;;;;8.16;71.65;101517.34;2103238;27;20208;-68
2023/04/19 16:16:16;;;;;;;16.70;4.25;;;;;;;8.26;72.21;101522.88;2102830;28;20357;-68
2023/04/19 16:17:20;;;;;;;11.13;3.63;;;;;;;8.18;71.70;101517.94;2103388;27;20236;-67
2023/04/19 16:18:21;;;;;;;15.73;3.92;;;;;;;8.17;71.66;101517.13;2102824;28;20240;-67
2023/04/19 16:19:24;;;;;;;14.80;4.25;;;;;;;8.25;71.90;101519.41;2102964;27;20236;-67
2023/04/19 16:20:34;;;;;;;10.75;4.03;;;;;;;8.27;71.82;101521.84;2111455;28;20262;-68
2023/04/19 16:21:44;;;;;;;13.77;4.00;;;;;;;8.19;71.52;101522.22;2104089;28;20251;-67
2023/04/19 16:22:46;;;;;;;13.07;4.35;;;;;;;8.17;71.85;101529.69;2112399;27;20199;-68
2023/04/19 16:23:48;;;;;;;14.45;4.13;;;;;;;8.06;71.64;101518.78;2111187;28;20274;-67
2023/04/19 16:24:58;;;;;;;15.50;4.20;;;;;;;8.04;71.66;101520.88;2103027;28;20394;-69
2023/04/19 16:26:07;;;;;;;11.40;3.63;;;;;;;8.06;71.64;101524.13;2111365;28;20254;-67
2023/04/19 16:27:11;;;;;;;10.05;3.60;;;;;;;8.03;71.94;101521.13;2095686;28;20201;-67
2023/04/19 16:28:15;;;;;;;13.18;4.13;;;;;;;8.02;71.83;101533.69;2094802;28;20318;-67
2023/04/19 16:29:17;;;;;;;9.65;3.72;;;;;;;8.01;71.86;101524.03;2097560;28;20220;-67
2023/04/19 16:30:22;;;;;;;13.00;3.55;;;;;;;7.97;72.24;101514.03;2110604;27;20982;-67
2023/04/19 16:31:23;;;;;;;12.95;3.80;;;;;;;8.03;72.35;101529.16;2111187;27;20250;-66
2023/04/19 16:32:25;;;;;;;20.05;4.85;;;;;;;8.04;72.23;101531.59;2110972;28;20257;-67
2023/04/19 16:33:31;;;;;;;11.02;4.65;;;;;;;8.04;72.29;101520.88;2127986;27;20336;-66
2023/04/19 16:34:36;;;;;;;15.70;4.00;;;;;;;8.10;72.14;101519.09;2134805;27;20336;-66
2023/04/19 16:35:39;;;;;;;12.98;3.55;;;;;;;8.16;72.08;101520.03;2127793;27;21162;-67
2023/04/19 16:36:45;;;;;;;11.70;3.47;;;;;;;8.14;72.08;101514.91;2119619;27;20235;-68
2023/04/19 16:37:55;;;;;;;12.90;3.85;;;;;;;8.18;72.34;101520.59;2110940;28;21215;-68
2023/04/19 16:39:00;;;;;;;8.73;3.40;;;;;;;8.23;72.38;101528.72;2111411;28;20260;-65
2023/04/19 16:40:10;;;;;;;12.45;3.47;;;;;;;8.23;72.34;101507.28;2120328;27;20289;-69
2023/04/19 16:41:14;;;;;;;8.65;3.40;;;;;;;8.26;72.29;101512.16;2109861;28;20219;-67
2023/04/19 16:42:19;;;;;;;11.95;4.10;;;;;;;8.26;71.93;101504.97;2093958;28;20209;-67
2023/04/19 16:43:23;;;;;;;14.25;5.45;;;;;;;8.34;72.03;101509.13;2092078;28;20233;-67
2023/04/19 16:44:27;;;;;;;10.20;3.72;;;;;;;8.31;72.01;101498.88;2098377;27;20860;-67
2023/04/19 16:45:31;;;;;;;12.15;3.90;;;;;;;8.30;72.17;101506.09;2111145;28;20245;-66
2023/04/19 16:46:35;;;;;;;12.00;3.70;;;;;;;8.33;72.34;101508.31;2112370;27;20216;-66
2023/04/19 16:47:42;;;;;;;10.73;3.22;;;;;;;8.34;72.02;101503.75;2111721;27;20230;-68
2023/04/19 16:48:44;;;;;;;14.02;3.95;;;;;;;8.33;72.09;101508.31;2111554;27;21527;-67
2023/04/19 16:49:50;;;;;;;13.35;3.30;;;;;;;8.32;72.10;101505.84;2103121;28;20216;-67
2023/04/19 16:50:55;;;;;;;10.15;3.58;;;;;;;8.33;72.26;101515.53;2096636;28;20036;-67
2023/04/19 16:51:59;;;;;;;11.68;3.40;;;;;;;8.33;72.12;101508.31;2101985;28;20071;-66
2023/04/19 16:53:02;;;;;;;8.77;3.83;;;;;;;8.35;72.04;101510.72;2110914;27;20028;-66
2023/04/19 16:54:07;;;;;;;14.27;4.13;;;;;;;8.34;72.25;101514.47;2120349;27;21159;-67
2023/04/19 16:55:09;;;;;;;11.93;4.07;;;;;;;8.35;72.06;101513.41;2099404;28;20212;-67
2023/04/19 16:56:11;;;;;;;15.07;4.78;;;;;;;8.31;72.10;101518.44;2102876;28;20013;-66
2023/04/19 16:57:17;;;;;;;11.27;4.60;;;;;;;8.25;72.47;101515.91;2111716;27;20342;-67
2023/04/19 16:58:23;;;;;;;19.40;6.53;;;;;;;8.24;72.54;101520.47;2120416;27;20222;-67
2023/04/19 16:59:27;;;;;;;17.02;4.85;;;;;;;8.07;72.72;101504.34;2102709;28;20321;-67
2023/04/19 17:00:32;;;;;;;16.02;5.40;;;;;;;8.06;72.66;101493.84;2088010;28;20225;-66
2023/04/19 17:01:40;;;;;;;11.55;4.82;;;;;;;8.03;72.54;101513.06;2104456;28;20025;-67
2023/04/19 17:02:44;;;;;;;11.13;4.35;;;;;;;8.00;72.47;101508.19;2086373;28;21487;-66
2023/04/19 17:03:48;;;;;;;13.00;4.10;;;;;;;7.93;73.17;101513.69;2090356;27;20982;-67
2023/04/19 17:04:52;;;;;;;16.17;4.43;;;;;;;7.86;73.52;101519.19;2110792;28;20202;-67
2023/04/19 17:05:56;;;;;;;15.70;4.88;;;;;;;7.79;74.09;101523.06;2102470;28;20212;-66
2023/04/19 17:06:57;;;;;;;12.32;4.60;;;;;;;7.71;74.52;101515.38;2109767;27;20347;-66
2023/04/19 17:08:10;;;;;;;12.63;3.65;;;;;;;7.72;74.66;101527.69;2118774;27;20211;-66
2023/04/19 17:09:12;;;;;;;13.95;4.00;;;;;;;7.72;74.67;101527.69;2093400;28;20319;-66
2023/04/19 17:10:16;;;;;;;10.40;4.03;;;;;;;7.71;74.64;101523.41;2084097;28;20156;-67
2023/04/19 17:11:18;;;;;;;16.00;4.10;;;;;;;7.68;74.85;101519.31;2102758;27;21042;-66
2023/04/19 17:12:25;;;;;;;16.90;4.30;;;;;;;7.69;74.80;101522.81;2110485;27;20262;-68
2023/04/19 17:13:26;;;;;;;10.65;4.07;;;;;;;7.73;74.76;101524.81;2095048;28;21085;-64
2023/04/19 17:14:30;;;;;;;15.80;4.93;;;;;;;7.69;74.74;101528.97;2094449;28;20287;-67
2023/04/19 17:15:32;;;;;;;12.57;4.40;;;;;;;7.66;75.29;101524.13;2094563;28;20251;-65
2023/04/19 17:16:39;;;;;;;13.35;4.03;;;;;;;7.66;74.97;101524.94;2094732;28;20256;-67
2023/04/19 17:17:49;;;;;;;14.02;3.67;;;;;;;7.71;75.44;101520.72;2094835;28;20201;-66
2023/04/19 17:19:00;;;;;;;11.13;3.70;;;;;;;7.77;75.33;101525.16;2097416;28;20225;-67
2023/04/19 17:20:14;;;;;;;13.60;4.00;;;;;;;7.78;74.98;101532.13;2097354;28;20309;-66
2023/04/19 17:21:21;;;;;;;7.55;3.80;;;;;;;7.80;75.21;101522.00;2091062;28;20343;-66
2023/04/19 17:22:23;;;;;;;10.57;3.90;;;;;;;7.80;75.04;101524.66;2081321;28;20044;-67
2023/04/19 17:23:25;;;;;;;11.45;4.07;;;;;;;7.80;75.21;101524.66;2087836;28;20482;-67
2023/04/19 17:24:30;;;;;;;16.55;4.55;;;;;;;7.74;74.98;101522.94;2096231;28;21097;-68
2023/04/19 17:25:33;;;;;;;14.05;4.70;;;;;;;7.73;75.15;101529.34;2113470;28;20218;-68
2023/04/19 17:26:37;;;;;;;15.55;4.72;;;;;;;7.61;75.09;101511.44;2103405;28;20218;-68
2023/04/19 17:27:38;;;;;;;17.70;4.68;;;;;;;7.61;75.17;101522.13;2103845;28;21104;-67
2023/04/19 17:28:45;;;;;;;10.63;3.88;;;;;;;7.64;75.11;101521.66;2095308;28;20305;-67
2023/04/19 17:29:47;;;;;;;15.80;4.40;;;;;;;7.65;75.19;101523.28;2087875;28;21082;-66
2023/04/19 17:30:51;;;;;;;12.50;3.97;;;;;;;7.63;75.19;101530.75;2104390;28;21181;-67
2023/04/19 17:32:01;;;;;;;15.70;4.32;;;;;;;7.59;75.56;101512.72;2104077;28;20322;-67
2023/04/19 17:33:06;;;;;;;11.05;4.03;;;;;;;7.61;75.56;101524.00;2096190;28;20252;-67
2023/04/19 17:34:13;;;;;;;12.05;3.80;;;;;;;7.61;75.66;101521.31;2095833;28;20244;-67
2023/04/19 17:35:15;;;;;;;15.25;4.00;;;;;;;7.59;75.69;101528.75;2088353;28;20217;-68
2023/04/19 17:36:22;;;;;;;11.00;4.45;;;;;;;7.53;76.29;101514.47;2103777;28;20243;-68
2023/04/19 17:37:30;;;;;;;;;;;;;;;7.56;76.07;101530.03;2086760;28;20296;-67
2023/04/19 17:38:32;;;;;;;10.18;4.18;;;;;;;7.52;76.39;101522.72;2087823;28;19913;-67
2023/04/19 17:39:39;;;;;;;14.88;4.30;;;;;;;7.53;75.99;101521.69;2094986;28;20200;-65
2023/04/19 17:40:44;;;;;;;9.95;3.97;;;;;;;7.55;76.25;101532.97;2088349;28;20344;-66
2023/04/19 17:41:46;;;;;;;10.85;4.20;;;;;;;7.52;76.15;101523.53;2096542;28;20319;-66
2023/04/19 17:42:48;;;;;;;12.98;3.80;;;;;;;7.48;76.36;101533.09;2097136;28;20204;-66
2023/04/19 17:43:53;;;;;;;15.88;4.07;;;;;;;7.50;76.49;101524.81;2105287;28;20207;-65
2023/04/19 17:44:58;;;;;;;16.02;3.97;;;;;;;7.42;76.62;101517.97;2104833;28;20212;-65
2023/04/19 17:46:03;;;;;;;16.77;3.78;;;;;;;7.40;76.62;101528.09;2089282;28;21039;-65
2023/04/19 17:47:07;;;;;;;12.68;3.80;;;;;;;7.40;76.85;101528.09;2088823;28;21084;-65
2023/04/19 17:48:11;;;;;;;11.93;3.83;;;;;;;7.42;76.69;101531.34;2096521;28;20250;-65
2023/04/19 17:49:18;;;;;;;10.88;4.18;;;;;;;7.40;76.50;101526.22;2096749;28;20967;-65
2023/04/19 17:50:20;;;;;;;11.50;4.03;;;;;;;7.40;76.68;101526.22;2104891;28;21054;-65
2023/04/19 17:51:22;;;;;;;18.42;5.45;;;;;;;7.39;76.44;101526.47;2095510;28;20221;-65
2023/04/19 17:52:23;;;;;;;14.52;4.70;;;;;;;7.35;76.48;101522.63;2079791;28;20339;-66
2023/04/19 17:53:30;;;;;;;11.90;4.20;;;;;;;7.34;76.58;101537.03;2096791;28;20204;-65
2023/04/19 17:54:39;;;;;;;11.05;4.00;;;;;;;7.31;76.75;101522.25;2113695;28;21061;-65
2023/04/19 17:55:40;;;;;;;10.35;4.35;;;;;;;7.33;76.56;101522.03;2095942;28;20036;-65
2023/04/19 17:56:47;;;;;;;10.57;4.25;;;;;;;7.35;76.45;101522.63;2096445;28;20228;-66
2023/04/19 17:57:51;;;;;;;12.95;4.97;;;;;;;7.33;76.33;101524.72;2099755;28;20256;-65
2023/04/19 17:59:02;;;;;;;15.60;4.57;;;;;;;7.28;76.55;101521.91;2102693;27;20276;-66
2023/04/19 18:00:12;;;;;;;10.43;4.57;;;;;;;7.29;76.97;101528.91;2109337;27;21058;-65
2023/04/19 18:01:17;;;;;;;13.10;4.28;;;;;;;7.27;76.79;101526.47;2111324;27;20198;-64
2023/04/19 18:02:27;;;;;;;17.17;4.28;;;;;;;7.24;76.99;101520.75;2104105;28;20202;-65
2023/04/19 18:03:28;;;;;;;10.27;3.80;;;;;;;7.21;77.34;101532.72;2096284;28;20264;-65
2023/04/19 18:04:35;;;;;;;12.10;4.43;;;;;;;7.23;77.48;101524.50;2113427;27;21177;-65
2023/04/19 18:05:40;;;;;;;16.05;4.10;;;;;;;7.24;77.29;101542.16;2111282;27;20231;-65
2023/04/19 18:06:47;;;;;;;17.00;4.57;;;;;;;7.23;77.62;101529.84;2104471;28;20298;-66
2023/04/19 18:07:51;;;;;;;12.85;4.15;;;;;;;7.22;77.40;101554.94;2103845;28;20236;-66
2023/04/19 18:08:53;;;;;;;11.55;3.75;;;;;;;7.23;77.51;101536.00;2096397;28;20290;-66
2023/04/19 18:09:56;;;;;;;17.88;4.65;;;;;;;7.19;77.61;101541.00;2096228;28;20421;-66
2023/04/19 18:11:03;;;;;;;16.42;4.72;;;;;;;7.20;77.75;101531.94;2096576;28;20259;-65
2023/04/19 18:12:06;;;;;;;14.32;4.82;;;;;;;7.22;77.72;101533.53;2094671;28;20196;-65
2023/04/19 18:13:10;;;;;;;17.27;5.50;;;;;;;7.20;77.68;101526.56;2114419;27;20270;-65
2023/04/19 18:14:14;;;;;;;16.30;5.72;;;;;;;7.18;77.91;101534.00;2104996;28;20247;-65
2023/04/19 18:15:21;;;;;;;16.17;4.80;;;;;;;7.18;77.70;101550.06;2088870;28;21027;-65
2023/04/19 18:16:25;;;;;;;11.60;4.30;;;;;;;7.22;77.60;101544.25;2089704;28;20220;-65
2023/04/19 18:17:27;;;;;;;15.50;4.43;;;;;;;7.20;77.81;101531.94;2097015;28;20244;-65
2023/04/19 18:18:36;;;;;;;11.85;4.47;;;;;;;7.20;77.69;101542.63;2086290;28;20339;-65
2023/04/19 18:19:43;;;;;;;11.68;4.43;;;;;;;7.17;77.78;101544.94;2087178;28;20264;-65
2023/04/19 18:20:45;;;;;;;8.88;4.35;;;;;;;7.19;77.86;101545.53;2092413;28;20068;-65
2023/04/19 18:21:47;;;;;;;9.80;4.60;;;;;;;7.20;77.79;101552.50;2092330;28;20224;-65
2023/04/19 18:22:53;;;;;;;16.15;4.80;;;;;;;7.18;78.11;101544.69;2087994;28;20312;-65
2023/04/19 18:23:55;;;;;;;12.25;4.03;;;;;;;7.20;77.42;101550.66;2103386;28;20227;-65
2023/04/19 18:25:00;;;;;;;11.02;4.80;;;;;;;7.22;77.76;101560.28;2121160;27;20210;-65
2023/04/19 18:26:02;;;;;;;17.70;5.50;;;;;;;7.20;77.90;101547.97;2094505;28;20244;-65
2023/04/19 18:27:04;;;;;;;15.05;5.78;;;;;;;7.22;78.09;101544.25;2088145;28;20976;-65
2023/04/19 18:28:06;;;;;;;11.45;4.18;;;;;;;7.21;77.90;101554.13;2079796;28;20237;-65
2023/04/19 18:29:14;;;;;;;12.45;4.85;;;;;;;7.19;78.20;101553.56;2086997;28;20308;-65
2023/04/19 18:30:19;;;;;;;17.45;4.80;;;;;;;7.19;78.35;101546.34;2099092;28;20220;-65
2023/04/19 18:31:22;;;;;;;13.50;4.85;;;;;;;7.19;78.21;101549.03;2103587;28;20267;-65
2023/04/19 18:32:27;;;;;;;15.52;4.65;;;;;;;7.18;78.61;101550.06;2104166;28;20278;-65
2023/04/19 18:33:31;;;;;;;11.50;4.22;;;;;;;7.18;78.49;101555.41;2095854;28;20335;-65
2023/04/19 18:34:37;;;;;;;8.48;4.43;;;;;;;7.18;78.54;101557.28;2084693;28;20966;-65
2023/04/19 18:35:41;;;;;;;16.00;4.45;;;;;;;7.18;78.77;101550.06;2081586;28;20301;-65
2023/04/19 18:36:44;;;;;;;12.00;3.85;;;;;;;7.20;78.52;101552.50;2096349;28;20220;-65
2023/04/19 18:37:50;;;;;;;14.65;4.60;;;;;;;7.19;78.74;101554.38;2104879;28;20218;-65
2023/04/19 18:38:54;;;;;;;11.63;4.95;;;;;;;7.18;78.75;101549.25;2104375;28;20255;-64
2023/04/19 18:39:55;;;;;;;15.73;5.15;;;;;;;7.17;78.71;101553.78;2080091;28;20224;-66
2023/04/19 18:40:58;;;;;;;15.60;4.65;;;;;;;7.17;78.63;101556.47;2079259;28;20296;-66
2023/04/19 18:42:04;;;;;;;10.75;4.65;;;;;;;7.16;78.73;101567.41;2079183;28;20357;-66
2023/04/19 18:43:06;;;;;;;10.93;4.43;;;;;;;7.13;79.15;101560.66;2087301;28;20275;-66
2023/04/19 18:44:10;;;;;;;14.40;4.47;;;;;;;7.13;79.15;101557.97;2102409;28;20393;-66
2023/04/19 18:45:13;;;;;;;15.57;4.78;;;;;;;7.15;78.94;101553.19;2079981;28;20194;-66
2023/04/19 18:46:18;;;;;;;15.75;4.85;;;;;;;7.15;78.77;101555.88;2072612;28;20218;-65
2023/04/19 18:47:20;;;;;;;15.07;4.82;;;;;;;7.16;79.08;101578.91;2080634;28;20261;-67
2023/04/19 18:48:25;;;;;;;12.13;4.93;;;;;;;7.16;78.96;101554.03;2104592;28;20250;-66
2023/04/19 18:49:29;;;;;;;14.25;4.75;;;;;;;7.17;78.67;101547.63;2092124;28;20239;-66
2023/04/19 18:50:33;;;;;;;14.65;4.30;;;;;;;7.16;78.94;101554.84;2079928;28;20213;-66
2023/04/19 18:51:38;;;;;;;12.88;4.57;;;;;;;7.17;78.77;101564.47;2078996;28;20331;-66
2023/04/19 18:52:39;;;;;;;12.70;3.92;;;;;;;7.18;79.04;101581.34;2073124;28;20440;-65
2023/04/19 18:53:43;;;;;;;16.98;4.60;;;;;;;7.19;78.99;101562.41;2097309;28;20362;-66
2023/04/19 18:54:46;;;;;;;13.98;4.70;;;;;;;7.18;79.10;101560.75;2095971;28;20236;-66
2023/04/19 18:55:47;;;;;;;15.00;5.35;;;;;;;7.19;79.25;101562.41;2096426;28;20386;-66
2023/04/19 18:56:48;;;;;;;15.30;4.80;;;;;;;7.22;79.29;101549.59;2095767;28;20250;-65
2023/04/19 18:57:57;;;;;;;19.73;7.97;;;;;;;7.25;79.04;101554.47;2080218;28;20269;-66
2023/04/19 18:59:04;;;;;;;11.13;4.75;;;;;;;7.24;79.17;101558.22;2097131;28;20320;-66
2023/04/19 19:00:10;;;;;;;13.40;4.80;;;;;;;7.22;79.18;101558.47;2105274;28;20252;-66
2023/04/19 19:01:13;;;;;;;15.48;4.65;;;;;;;7.16;79.19;101567.41;2112854;28;20381;-67
2023/04/19 19:02:22;;;;;;;11.68;4.05;;;;;;;7.19;79.38;101573.09;2086816;28;20316;-67
2023/04/19 19:03:23;;;;;;;15.15;4.43;;;;;;;7.22;79.41;101568.31;2073221;28;21077;-66
2023/04/19 19:04:29;;;;;;;13.90;4.65;;;;;;;7.24;79.07;101595.66;2084687;28;20248;-66
2023/04/19 19:05:44;;;;;;;14.10;4.45;;;;;;;7.25;78.98;101624.03;2095686;28;20228;-67
2023/04/19 19:06:48;;;;;;;16.42;4.68;;;;;;;7.29;79.08;101658.13;2091481;28;20209;-66
2023/04/19 19:07:50;;;;;;;13.75;5.07;;;;;;;7.35;79.31;101667.91;2095455;28;20290;-64
2023/04/19 19:08:53;;;;;;;15.65;5.13;;;;;;;7.40;78.97;101681.41;2104084;28;20203;-66
2023/04/19 19:09:55;;;;;;;15.07;5.75;;;;;;;7.46;79.18;101670.84;2086880;28;20315;-65
2023/04/19 19:10:57;;;;;;;19.00;5.65;;;;;;;7.49;79.43;101673.88;2086456;28;20193;-67
2023/04/19 19:12:01;;;;;;;20.90;5.57;;;;;;;7.52;79.76;101684.09;2087658;28;20362;-66
2023/04/19 19:13:04;;;;;;;16.48;5.00;;;;;;;7.52;79.53;101662.69;2088142;28;20445;-66
2023/04/19 19:14:05;;;;;;;12.38;4.47;;;;;;;7.50;79.04;101597.88;2088257;28;20221;-66
2023/04/19 19:15:10;;;;;;;14.15;4.65;;;;;;;7.51;79.09;101588.81;2079876;28;20258;-66
2023/04/19 19:16:11;;;;;;;17.25;5.35;;;;;;;7.51;79.05;101575.44;2097692;27;20240;-66
2023/04/19 19:17:17;;;;;;;16.92;4.80;;;;;;;7.52;79.21;101576.25;2104363;28;20236;-67
2023/04/19 19:18:20;;;;;;;14.23;5.45;;;;;;;7.50;79.00;101576.47;2088403;28;20973;-66
2023/04/19 19:19:21;;;;;;;16.08;5.90;;;;;;;7.53;79.05;101610.78;2088206;28;21578;-66
2023/04/19 19:20:23;;;;;;;14.73;5.65;;;;;;;7.53;78.98;101626.84;2076739;28;20256;-66
2023/04/19 19:21:28;;;;;;;13.45;5.60;;;;;;;7.58;79.03;101669.00;2088443;28;20279;-66
2023/04/19 19:22:29;;;;;;;15.48;5.50;;;;;;;7.60;78.96;101670.41;2080824;28;20245;-66
2023/04/19 19:23:33;;;;;;;16.00;5.50;;;;;;;7.64;78.58;101668.88;2081310;28;21088;-66
2023/04/19 19:24:35;;;;;;;18.23;5.38;;;;;;;7.69;78.58;101664.69;2080215;28;21388;-66
2023/04/19 19:25:39;;;;;;;19.50;6.25;;;;;;;7.73;78.49;101663.19;2097034;28;20204;-66
2023/04/19 19:26:41;;;;;;;15.63;5.60;;;;;;;7.76;78.25;101662.72;2096269;28;20245;-66
2023/04/19 19:27:45;;;;;;;17.55;5.45;;;;;;;7.80;78.09;101653.19;2088200;28;21245;-67
2023/04/19 19:28:48;;;;;;;17.02;5.32;;;;;;;7.81;78.40;101649.44;2089486;28;20245;-65
2023/04/19 19:29:50;;;;;;;17.73;5.80;;;;;;;7.84;78.10;101652.47;2096451;28;20334;-65
2023/04/19 19:30:52;;;;;;;16.08;6.43;;;;;;;7.86;77.94;101660.28;2079948;28;20925;-65
2023/04/19 19:31:57;;;;;;;12.07;4.80;;;;;;;7.90;77.52;101664.13;2072049;28;20210;-65
2023/04/19 19:33:01;;;;;;;18.13;5.75;;;;;;;7.93;77.58;101650.25;2089291;28;20217;-66
2023/04/19 19:34:06;;;;;;;13.13;5.82;;;;;;;7.90;76.66;101648.84;2104535;28;21184;-65
2023/04/19 19:35:19;;;;;;;14.77;5.45;;;;;;;7.88;76.06;101620.69;2097532;28;20248;-67
2023/04/19 19:36:20;;;;;;;14.23;6.47;;;;;;;7.84;76.04;101603.47;2097235;28;20212;-65
2023/04/19 19:37:22;;;;;;;12.70;5.28;;;;;;;7.78;76.43;101607.88;2079526;28;20368;-66
2023/04/19 19:38:23;;;;;;;13.90;5.05;;;;;;;7.76;76.72;101607.31;2088087;28;20221;-65
2023/04/19 19:39:26;;;;;;;10.40;4.72;;;;;;;7.76;76.98;101619.91;2087932;28;20303;-65
2023/04/19 19:40:31;;;;;;;11.60;5.00;;;;;;;7.76;77.10;101628.75;2081033;28;20241;-66
2023/04/19 19:41:35;;;;;;;11.55;4.60;;;;;;;7.79;76.85;101646.22;2088526;28;20268;-66
2023/04/19 19:42:42;;;;;;;17.85;4.80;;;;;;;7.79;77.00;101651.56;2096616;28;20335;-67
2023/04/19 19:43:51;;;;;;;13.15;5.03;;;;;;;7.82;76.97;101646.56;2097009;28;21527;-67
2023/04/19 19:44:56;;;;;;;11.93;4.90;;;;;;;7.89;76.63;101663.31;2095950;28;20249;-68
2023/04/19 19:45:59;;;;;;;17.10;5.43;;;;;;;7.93;76.79;101652.94;2095447;28;20376;-67
2023/04/19 19:47:03;;;;;;;18.10;6.07;;;;;;;7.98;76.68;101642.34;2102211;28;20196;-68
2023/04/19 19:48:10;;;;;;;19.25;5.53;;;;;;;8.02;76.79;101640.81;2104353;28;20235;-67
2023/04/19 19:49:12;;;;;;;17.77;5.90;;;;;;;8.04;76.68;101638.75;2103473;28;20215;-67
2023/04/19 19:50:15;;;;;;;17.85;5.43;;;;;;;8.08;76.80;101636.41;2076341;28;20201;-67
2023/04/19 19:51:20;;;;;;;14.32;5.43;;;;;;;8.11;76.43;101655.50;2094815;28;20934;-67
2023/04/19 19:52:26;;;;;;;21.13;5.82;;;;;;;8.12;76.31;101651.75;2113570;27;20320;-66
2023/04/19 19:53:31;;;;;;;20.38;5.80;;;;;;;8.12;76.14;101645.59;2120046;27;20214;-68
2023/04/19 19:54:35;;;;;;;16.90;5.68;;;;;;;8.16;76.17;101645.91;2103330;28;20230;-66
2023/04/19 19:55:39;;;;;;;17.02;6.10;;;;;;;8.17;75.94;101636.84;2086895;28;21202;-68
2023/04/19 19:56:44;;;;;;;16.02;5.20;;;;;;;8.20;76.51;101644.44;2102610;27;20220;-67
2023/04/19 19:57:49;;;;;;;16.80;5.35;;;;;;;8.20;76.20;101637.19;2112088;28;20290;-70
2023/04/19 19:58:56;;;;;;;14.98;5.80;;;;;;;8.23;76.04;101638.56;2096182;28;20209;-67
2023/04/19 19:59:59;;;;;;;20.27;5.70;;;;;;;8.22;76.04;101642.31;2097318;28;20219;-67
2023/04/19 20:01:03;;;;;;;21.30;9.45;;;;;;;8.23;75.86;101636.72;2087834;28;20217;-68
2023/04/19 20:02:05;;;;;;;19.55;8.20;;;;;;;8.23;75.92;101641.25;2097398;28;21066;-68
2023/04/19 20:03:07;;;;;;;17.63;6.38;;;;;;;8.25;75.67;101636.47;2104136;28;20315;-68
2023/04/19 20:04:14;;;;;;;14.50;5.97;;;;;;;8.27;76.16;101637.06;2104976;28;20251;-69
2023/04/19 20:05:18;;;;;;;21.10;5.88;;;;;;;8.27;75.62;101639.75;2105078;28;20314;-69
2023/04/19 20:06:23;;;;;;;15.88;6.45;;;;;;;8.27;75.88;101637.88;2105510;28;21040;-68
2023/04/19 20:07:26;;;;;;;13.55;5.90;;;;;;;8.28;75.79;101633.31;2095955;28;20207;-69
2023/04/19 20:08:28;;;;;;;20.13;6.03;;;;;;;8.27;75.94;101637.88;2096038;28;20260;-68
2023/04/19 20:09:36;;;;;;;10.95;4.80;;;;;;;8.26;75.99;101641.63;2112851;27;21504;-68
2023/04/19 20:10:42;;;;;;;11.45;5.18;;;;;;;8.27;75.42;101639.75;2107720;27;20310;-68
2023/04/19 20:11:44;;;;;;;14.00;4.93;;;;;;;8.25;75.41;101633.78;2095891;28;20247;-67
2023/04/19 20:12:57;;;;;;;11.00;4.80;;;;;;;8.25;75.56;101642.63;2096388;28;20253;-68
2023/04/19 20:14:02;;;;;;;17.60;4.88;;;;;;;8.27;75.80;101637.06;2097337;28;20281;-67
2023/04/19 20:15:09;;;;;;;9.45;4.68;;;;;;;8.26;75.64;101646.13;2096730;28;20252;-67
2023/04/19 20:16:17;;;;;;;8.60;4.30;;;;;;;8.20;75.33;101647.91;2096350;28;20037;-67
2023/04/19 20:17:19;;;;;;;15.73;5.45;;;;;;;8.19;75.07;101635.53;2098247;28;20959;-68
2023/04/19 20:18:21;;;;;;;16.88;5.43;;;;;;;8.20;75.51;101641.75;2104475;28;21049;-67
2023/04/19 20:19:27;;;;;;;12.00;4.80;;;;;;;8.20;75.13;101642.56;2087958;28;20372;-66
2023/04/19 20:20:28;;;;;;;13.63;5.00;;;;;;;8.18;75.59;101654.56;2076136;28;20040;-68
2023/04/19 20:21:32;;;;;;;9.70;4.63;;;;;;;8.13;75.36;101642.69;2087925;28;21049;-66
2023/04/19 20:22:38;;;;;;;12.82;5.28;;;;;;;8.13;75.45;101642.69;2096730;28;20150;-67
2023/04/19 20:23:43;;;;;;;14.55;5.85;;;;;;;8.08;75.28;101634.53;2095999;28;20140;-66
2023/04/19 20:24:46;;;;;;;21.00;7.28;;;;;;;8.07;75.63;101638.25;2096744;28;20241;-66
2023/04/19 20:25:52;;;;;;;14.10;5.95;;;;;;;8.09;75.51;101640.69;2088236;28;21107;-69
2023/04/19 20:26:58;;;;;;;21.80;6.40;;;;;;;8.05;75.56;101634.19;2096961;28;20208;-67
2023/04/19 20:28:02;;;;;;;17.80;5.50;;;;;;;8.05;75.65;101639.53;2096120;28;20216;-67
2023/04/19 20:29:10;;;;;;;15.20;5.78;;;;;;;8.01;75.50;101633.84;2096476;28;20200;-67
2023/04/19 20:30:12;;;;;;;14.52;4.88;;;;;;;8.00;75.64;101634.06;2087803;28;20360;-68
2023/04/19 20:31:22;;;;;;;18.55;5.60;;;;;;;8.01;75.70;101639.22;2091777;28;20983;-67
2023/04/19 20:32:29;;;;;;;11.60;4.90;;;;;;;8.04;75.89;101638.75;2095939;28;20033;-67
2023/04/19 20:33:43;;;;;;;13.95;5.20;;;;;;;8.01;75.25;101644.56;2090533;28;20252;-67
2023/04/19 20:34:55;;;;;;;15.43;4.93;;;;;;;7.98;75.44;101636.19;2106291;28;20016;-68
2023/04/19 20:35:59;;;;;;;12.10;5.35;;;;;;;7.98;75.36;101642.34;2113398;28;20989;-67
2023/04/19 20:37:02;;;;;;;12.73;4.65;;;;;;;7.98;75.25;101634.31;2104266;28;20199;-67
2023/04/19 20:38:13;;;;;;;13.02;5.03;;;;;;;8.00;75.31;101637.56;2087155;28;20308;-67
2023/04/19 20:39:17;;;;;;;12.18;4.75;;;;;;;8.02;75.18;101640.00;2090871;28;21011;-67
2023/04/19 20:40:27;;;;;;;10.82;4.50;;;;;;;7.98;75.23;101644.22;2095592;28;20259;-67
2023/04/19 20:41:31;;;;;;;12.73;5.65;;;;;;;7.99;75.18;101638.63;2089209;28;20034;-67
2023/04/19 20:42:35;;;;;;;12.98;5.65;;;;;;;7.99;75.33;101661.91;2087673;28;20324;-67
2023/04/19 20:43:39;;;;;;;14.32;5.07;;;;;;;8.01;75.17;101649.09;2097205;28;20259;-67
2023/04/19 20:44:51;;;;;;;11.55;4.45;;;;;;;8.04;75.26;101649.44;2112161;27;20231;-66
2023/04/19 20:45:54;;;;;;;11.95;4.50;;;;;;;8.08;75.25;101634.53;2105237;28;20322;-67
2023/04/19 20:47:11;;;;;;;12.23;4.70;;;;;;;8.10;75.27;101642.31;2106894;28;20320;-67
2023/04/19 20:48:18;;;;;;;14.82;4.90;;;;;;;8.11;74.97;101639.41;2094351;28;20327;-67
2023/04/19 20:49:32;;;;;;;15.00;4.60;;;;;;;8.12;75.19;101635.69;2082439;28;20222;-66
2023/04/19 20:50:35;;;;;;;11.27;4.60;;;;;;;8.16;74.88;101640.56;2081608;28;20202;-66
2023/04/19 20:51:38;;;;;;;14.57;5.00;;;;;;;8.16;74.99;101636.00;2096110;28;20236;-66
2023/04/19 20:52:40;;;;;;;16.42;4.50;;;;;;;8.19;74.97;101632.06;2104164;28;21488;-67
2023/04/19 20:53:45;;;;;;;10.05;4.30;;;;;;;8.20;74.62;101636.38;2079079;28;20242;-67
2023/04/19 20:54:50;;;;;;;13.52;4.38;;;;;;;8.15;74.89;101634.41;2082402;28;20260;-67
2023/04/19 20:55:57;;;;;;;11.13;4.60;;;;;;;8.17;74.97;101623.47;2096426;28;20287;-67
2023/04/19 20:57:04;;;;;;;14.32;5.40;;;;;;;8.16;74.99;101633.34;2104958;28;20916;-66
2023/04/19 20:58:08;;;;;;;13.18;4.85;;;;;;;8.15;74.87;101633.59;2097130;28;20458;-65
2023/04/19 20:59:10;;;;;;;15.70;4.65;;;;;;;8.14;74.93;101635.47;2081752;28;20241;-68
2023/04/19 21:00:16;;;;;;;11.38;4.90;;;;;;;8.18;74.97;101639.28;2097792;28;20247;-66
2023/04/19 21:01:18;;;;;;;12.80;4.65;;;;;;;8.23;75.02;101643.91;2088766;28;21136;-67
2023/04/19 21:02:20;;;;;;;12.82;4.53;;;;;;;8.24;74.81;101635.66;2089492;28;20311;-67
2023/04/19 21:03:24;;;;;;;14.88;4.53;;;;;;;8.27;74.58;101642.41;2088558;28;20209;-66
2023/04/19 21:04:28;;;;;;;10.45;4.85;;;;;;;8.29;74.62;101645.66;2081712;28;20328;-68
2023/04/19 21:05:32;;;;;;;11.13;4.40;;;;;;;8.30;74.58;101637.41;2096860;28;21063;-67
2023/04/19 21:06:39;;;;;;;12.77;4.70;;;;;;;8.33;74.68;101638.81;2105334;28;20247;-67
2023/04/19 21:07:45;;;;;;;11.02;4.30;;;;;;;8.35;74.49;101640.19;2088143;28;20289;-67
2023/04/19 21:08:51;;;;;;;8.88;4.53;;;;;;;8.37;74.56;101639.94;2081386;28;20071;-66
2023/04/19 21:10:00;;;;;;;13.65;4.22;;;;;;;8.40;74.70;101636.81;2105792;28;20040;-67